Taurus — WYH6499 — position and weather

sailwx.info

Track history (hours):
 
Tides and Currents Weather Stations Pressure Air Temp Water Temp Dewpoint Dewpoint Depression Visibility Wind Speed Wind Dir Waves Ship Positions

Taurus

Owner: DUNLAP TOWING CO, LA CONNER, WA. More information available from US FCC via Universal Licensing System and Coast Guard Vessel Documentation Center.

Last reported at 2017-Dec-08 09:48 UTC. Time now 2017-Dec-12 08:33 UTC.
Position N 47°59' W 122°13'.

Type: Towing. MMSI: 303398000.

Date/timePositionNaut miles runAvg speedWind from/ knotsBaromVisibWave heightAir tempDewpointWater temp
2017-Dec-08 09:48N 47°59' W 122°13'0 0.0
2017-Dec-08 09:30N 47°59' W 122°13'1 1.9
2017-Dec-08 09:00N 47°58' W 122°14'5 9.5
2017-Dec-08 08:30N 47°56' W 122°20'5 9.9
2017-Dec-08 08:00N 47°51' W 122°23'611.1
2017-Dec-08 07:30N 47°46' W 122°25'611.5
2017-Dec-08 07:00N 47°40' W 122°27'510.7
2017-Dec-08 06:30N 47°35' W 122°28'3 5.9
2017-Dec-08 06:00N 47°34' W 122°32'0 0.0
2017-Dec-08 05:30N 47°34' W 122°32'0 0.1
2017-Dec-08 05:00N 47°34' W 122°32'2 4.6
2017-Dec-08 04:30N 47°34' W 122°29'4 8.3
2017-Dec-08 04:00N 47°39' W 122°28'4 8.3
2017-Dec-08 03:30N 47°43' W 122°28'4 8.5
2017-Dec-08 03:00N 47°47' W 122°26'4 8.2
2017-Dec-08 02:30N 47°51' W 122°24'4 8.8
2017-Dec-08 02:00N 47°55' W 122°21'4 8.5
2017-Dec-08 01:29N 47°59' W 122°20'6 8.2
2017-Dec-08 00:45N 48°04' W 122°25'15 1.5
2017-Dec-07 14:51N 48°17' W 122°37'1 1.1
2017-Dec-07 14:15N 48°17' W 122°36'2 4.7
2017-Dec-07 13:52N 48°15' W 122°35'4 4.6
2017-Dec-07 12:54N 48°11' W 122°33'5 5.2
2017-Dec-07 11:58N 48°07' W 122°29'2 5.5
2017-Dec-07 11:30N 48°05' W 122°27'3 5.6
2017-Dec-07 10:55N 48°03' W 122°23'3 6.4
2017-Dec-07 10:30N 48°01' W 122°21'3 6.3
2017-Dec-07 10:00N 47°58' W 122°20'3 5.6
2017-Dec-07 09:30N 47°55' W 122°21'3 5.3
2017-Dec-07 09:00N 47°52' W 122°23'3 5.3
2017-Dec-07 08:30N 47°50' W 122°24'3 5.8
2017-Dec-07 08:00N 47°47' W 122°25'3 6.2
2017-Dec-07 07:30N 47°44' W 122°26'3 6.3
2017-Dec-07 07:00N 47°41' W 122°27'3 6.0
2017-Dec-07 06:30N 47°38' W 122°27'3 5.9
2017-Dec-07 06:00N 47°35' W 122°26'3 5.7
2017-Dec-07 05:30N 47°34' W 122°30'1 2.6
2017-Dec-07 05:00N 47°34' W 122°32'4 8.3
2017-Dec-07 04:30N 47°37' W 122°28'510.7
2017-Dec-07 04:00N 47°42' W 122°28'510.4
2017-Dec-07 03:30N 47°47' W 122°25'510.7
2017-Dec-07 03:00N 47°52' W 122°22'611.6
2017-Dec-07 02:30N 47°57' W 122°19'4 8.0
2017-Dec-07 02:00N 47°59' W 122°13'2 4.0
2017-Dec-07 01:30N 47°58' W 122°16'4 7.3
2017-Dec-07 01:00N 47°56' W 122°20'3 6.8
2017-Dec-07 00:30N 47°54' W 122°24'4 9.0
2017-Dec-07 00:00N 47°55' W 122°31'5 9.6
2017-Dec-06 23:26N 47°58' W 122°38'  
2017-Dec-03 02:34N 47°59' W 122°13'0 0.1
2017-Dec-03 02:30N 47°59' W 122°13'2 3.8
2017-Dec-03 01:59N 47°59' W 122°16'4 8.4
2017-Dec-03 01:30N 47°56' W 122°20'3 7.0
2017-Dec-03 01:00N 47°54' W 122°24'4 7.6
2017-Dec-03 00:30N 47°55' W 122°30'7 1.3
2017-Dec-02 19:23N 48°00' W 122°36'2 6.0
2017-Dec-02 19:00N 47°58' W 122°34'3 5.9
2017-Dec-02 18:30N 47°57' W 122°31'3 6.9
2017-Dec-02 18:01N 47°54' W 122°27'3 6.4
2017-Dec-02 17:30N 47°54' W 122°22'4 7.6
2017-Dec-02 17:00N 47°57' W 122°20'4 7.0
2017-Dec-02 16:30N 47°59' W 122°15'1 2.9
2017-Dec-02 16:00N 47°59' W 122°13'0 0.0
2017-Dec-02 15:30N 47°59' W 122°13'0 0.0
2017-Dec-01 02:09N 47°59' W 122°13'0 0.8
2017-Dec-01 02:00N 47°59' W 122°13'2 3.4
2017-Dec-01 01:30N 47°59' W 122°16'4 8.4
2017-Dec-01 01:01N 47°56' W 122°20'4 7.5
2017-Dec-01 00:31N 47°54' W 122°25'4 7.9
2017-Dec-01 00:00N 47°55' W 122°30'4 7.1
2017-Nov-30 23:29N 47°57' W 122°35'5 1.2
2017-Nov-30 19:26N 48°02' W 122°38'3 6.7
2017-Nov-30 18:57N 47°59' W 122°35'3 6.7
2017-Nov-30 18:31N 47°57' W 122°32'4 7.5
2017-Nov-30 18:01N 47°55' W 122°28'4 7.1
2017-Nov-30 17:31N 47°54' W 122°22'4 7.6
2017-Nov-30 17:01N 47°57' W 122°20'4 7.4
2017-Nov-30 16:30N 47°58' W 122°14'1 2.0
2017-Nov-30 16:01N 47°59' W 122°13'0 0.0
2017-Nov-30 15:31N 47°59' W 122°13'0 0.0
2017-Nov-30 15:01N 47°59' W 122°13'0 0.0
2017-Nov-30 14:30N 47°59' W 122°13'0 0.0
2017-Nov-30 14:01N 47°59' W 122°13'0 0.0
2017-Nov-30 13:31N 47°59' W 122°13'0 0.0
2017-Nov-30 13:01N 47°59' W 122°13'0 0.0
2017-Nov-30 12:30N 47°59' W 122°13'0 0.0
2017-Nov-30 12:01N 47°59' W 122°13'0 0.0
2017-Nov-30 11:31N 47°59' W 122°13'0 0.0
2017-Nov-30 11:01N 47°59' W 122°13'0 0.0
2017-Nov-30 10:31N 47°59' W 122°13'0 0.0
2017-Nov-30 10:01N 47°59' W 122°13'0 0.0
2017-Nov-30 09:31N 47°59' W 122°13'0 0.0
2017-Nov-30 09:01N 47°59' W 122°13'0 0.0
2017-Nov-30 08:31N 47°59' W 122°13'0 0.0
2017-Nov-30 08:01N 47°59' W 122°13'0 0.0
2017-Nov-30 07:31N 47°59' W 122°13'0 0.0
2017-Nov-30 07:01N 47°59' W 122°13'0 0.0
2017-Nov-30 06:31N 47°59' W 122°13'0 0.0
2017-Nov-30 06:01N 47°59' W 122°13'0 0.0
2017-Nov-30 05:31N 47°59' W 122°13'0 0.0
2017-Nov-30 05:00N 47°59' W 122°13'0 0.0
2017-Nov-30 04:31N 47°59' W 122°13'0 0.0
2017-Nov-30 04:00N 47°59' W 122°13'0 0.0
2017-Nov-30 03:31N 47°59' W 122°13'0 0.0
2017-Nov-30 03:01N 47°59' W 122°13'1 2.1
2017-Nov-30 02:30N 47°59' W 122°15'3 5.7
2017-Nov-30 02:01N 47°58' W 122°18'4 8.8
2017-Nov-30 01:31N 47°54' W 122°22'4 7.3
2017-Nov-30 01:01N 47°54' W 122°27'4 7.4
2017-Nov-30 00:31N 47°56' W 122°32'4 7.3
2017-Nov-29 23:59N 47°58' W 122°37'4 1.1
2017-Nov-29 20:22N 48°02' W 122°37'3 6.7
2017-Nov-29 19:59N 47°59' W 122°36'3 6.8
2017-Nov-29 19:30N 47°57' W 122°32'4 7.5
2017-Nov-29 19:01N 47°55' W 122°28'4 7.4
2017-Nov-29 18:31N 47°54' W 122°23'4 8.4
2017-Nov-29 18:00N 47°57' W 122°19'4 7.8
2017-Nov-29 17:31N 47°59' W 122°14'1 1.0
2017-Nov-29 17:01N 47°59' W 122°13'0 0.0
2017-Nov-29 16:31N 47°59' W 122°13'0 0.0
2017-Nov-29 16:01N 47°59' W 122°13'0 0.0
2017-Nov-29 15:31N 47°59' W 122°13'0 0.0
2017-Nov-29 15:01N 47°59' W 122°13'0 0.0
2017-Nov-29 14:31N 47°59' W 122°13'0 0.0
2017-Nov-29 14:00N 47°59' W 122°13'0 0.0
2017-Nov-29 13:31N 47°59' W 122°13'0 0.0
2017-Nov-29 13:01N 47°59' W 122°13'0 0.0
2017-Nov-29 12:31N 47°59' W 122°13'0 0.0
2017-Nov-29 12:01N 47°59' W 122°13'0 0.0
2017-Nov-29 11:31N 47°59' W 122°13'0 0.0
2017-Nov-29 11:01N 47°59' W 122°13'0 0.0
2017-Nov-29 10:31N 47°59' W 122°13'0 0.0
2017-Nov-29 10:01N 47°59' W 122°13'0 0.0
2017-Nov-29 09:30N 47°59' W 122°13'0 0.0
2017-Nov-29 09:01N 47°59' W 122°13'0 0.0
2017-Nov-29 08:31N 47°59' W 122°13'0 0.0
2017-Nov-29 08:00N 47°59' W 122°13'0 0.0
2017-Nov-29 07:31N 47°59' W 122°13'0 0.0
2017-Nov-29 07:01N 47°59' W 122°13'0 0.0
2017-Nov-29 06:30N 47°59' W 122°13'0 0.0
2017-Nov-29 06:01N 47°59' W 122°13'0 0.0
2017-Nov-29 05:31N 47°59' W 122°13'0 0.0
2017-Nov-29 05:00N 47°59' W 122°13'0 0.0
2017-Nov-29 04:31N 47°59' W 122°13'0 0.0
2017-Nov-29 04:00N 47°59' W 122°13'0 0.0
2017-Nov-29 03:31N 47°59' W 122°13'0 0.0
2017-Nov-29 03:01N 47°59' W 122°13'0 0.0
2017-Nov-29 02:31N 47°59' W 122°13'0 0.0
2017-Nov-29 02:01N 47°59' W 122°13'0 0.0
2017-Nov-29 01:31N 47°59' W 122°13'0 0.0
2017-Nov-29 01:01N 47°59' W 122°13'0 0.0
2017-Nov-29 00:31N 47°59' W 122°13'0 0.0
2017-Nov-29 00:01N 47°59' W 122°13'0 0.0
2017-Nov-28 23:31N 47°59' W 122°13'0 0.0
2017-Nov-28 23:00N 47°59' W 122°13'0 0.0
2017-Nov-28 22:31N 47°59' W 122°13'0 0.0
2017-Nov-28 22:01N 47°59' W 122°13'0 0.0
2017-Nov-28 21:30N 47°59' W 122°13'0 0.0
2017-Nov-28 21:01N 47°59' W 122°13'0 0.0
2017-Nov-28 20:30N 47°59' W 122°13'0 0.0
2017-Nov-28 20:01N 47°59' W 122°13'0 0.0
2017-Nov-28 19:30N 47°59' W 122°13'0 0.0
2017-Nov-28 19:01N 47°59' W 122°13'0 0.0
2017-Nov-28 18:30N 47°59' W 122°13'0 0.0
2017-Nov-28 18:01N 47°59' W 122°13'0 0.0
2017-Nov-28 17:31N 47°59' W 122°13'0 0.0
2017-Nov-28 17:00N 47°59' W 122°13'0 0.0
2017-Nov-28 16:31N 47°59' W 122°13'0 0.0
2017-Nov-28 16:00N 47°59' W 122°13'0 0.0
2017-Nov-28 15:01N 47°59' W 122°13'0 0.0
2017-Nov-28 14:31N 47°59' W 122°13'0 0.0
2017-Nov-28 14:00N 47°59' W 122°13'0 0.0
2017-Nov-28 13:30N 47°59' W 122°13'0 0.0
2017-Nov-28 13:01N 47°59' W 122°13'0 0.0
2017-Nov-28 12:31N 47°59' W 122°13'0 0.0
2017-Nov-28 12:00N 47°59' W 122°13'0 0.0
2017-Nov-28 11:30N 47°59' W 122°13'0 0.0
2017-Nov-28 11:00N 47°59' W 122°13'0 0.0
2017-Nov-28 10:31N 47°59' W 122°13'0 0.0
2017-Nov-28 10:01N 47°59' W 122°13'  
Track history (hours):
 
Tides and Currents Weather Stations Pressure Air Temp Water Temp Dewpoint Dewpoint Depression Visibility Wind Speed Wind Dir Waves Ship Positions

Taurus

Owner: DUNLAP TOWING CO, LA CONNER, WA. More information available from US FCC via Universal Licensing System and Coast Guard Vessel Documentation Center.

Last reported at 2017-Dec-08 09:48 UTC. Time now 2017-Dec-12 08:33 UTC.
Position N 47°59' W 122°13'.

Type: Towing. MMSI: 303398000.

Date/timePositionNaut miles runAvg speedWind from/ knotsBaromVisibWave heightAir tempDewpointWater temp
2017-Dec-08 09:48N 47°59' W 122°13'0 0.0
2017-Dec-08 09:30N 47°59' W 122°13'1 1.9
2017-Dec-08 09:00N 47°58' W 122°14'5 9.5
2017-Dec-08 08:30N 47°56' W 122°20'5 9.9
2017-Dec-08 08:00N 47°51' W 122°23'611.1
2017-Dec-08 07:30N 47°46' W 122°25'611.5
2017-Dec-08 07:00N 47°40' W 122°27'510.7
2017-Dec-08 06:30N 47°35' W 122°28'3 5.9
2017-Dec-08 06:00N 47°34' W 122°32'0 0.0
2017-Dec-08 05:30N 47°34' W 122°32'0 0.1
2017-Dec-08 05:00N 47°34' W 122°32'2 4.6
2017-Dec-08 04:30N 47°34' W 122°29'4 8.3
2017-Dec-08 04:00N 47°39' W 122°28'4 8.3
2017-Dec-08 03:30N 47°43' W 122°28'4 8.5
2017-Dec-08 03:00N 47°47' W 122°26'4 8.2
2017-Dec-08 02:30N 47°51' W 122°24'4 8.8
2017-Dec-08 02:00N 47°55' W 122°21'4 8.5
2017-Dec-08 01:29N 47°59' W 122°20'6 8.2
2017-Dec-08 00:45N 48°04' W 122°25'15 1.5
2017-Dec-07 14:51N 48°17' W 122°37'1 1.1
2017-Dec-07 14:15N 48°17' W 122°36'2 4.7
2017-Dec-07 13:52N 48°15' W 122°35'4 4.6
2017-Dec-07 12:54N 48°11' W 122°33'5 5.2
2017-Dec-07 11:58N 48°07' W 122°29'2 5.5
2017-Dec-07 11:30N 48°05' W 122°27'3 5.6
2017-Dec-07 10:55N 48°03' W 122°23'3 6.4
2017-Dec-07 10:30N 48°01' W 122°21'3 6.3
2017-Dec-07 10:00N 47°58' W 122°20'3 5.6
2017-Dec-07 09:30N 47°55' W 122°21'3 5.3
2017-Dec-07 09:00N 47°52' W 122°23'3 5.3
2017-Dec-07 08:30N 47°50' W 122°24'3 5.8
2017-Dec-07 08:00N 47°47' W 122°25'3 6.2
2017-Dec-07 07:30N 47°44' W 122°26'3 6.3
2017-Dec-07 07:00N 47°41' W 122°27'3 6.0
2017-Dec-07 06:30N 47°38' W 122°27'3 5.9
2017-Dec-07 06:00N 47°35' W 122°26'3 5.7
2017-Dec-07 05:30N 47°34' W 122°30'1 2.6
2017-Dec-07 05:00N 47°34' W 122°32'4 8.3
2017-Dec-07 04:30N 47°37' W 122°28'510.7
2017-Dec-07 04:00N 47°42' W 122°28'510.4
2017-Dec-07 03:30N 47°47' W 122°25'510.7
2017-Dec-07 03:00N 47°52' W 122°22'611.6
2017-Dec-07 02:30N 47°57' W 122°19'4 8.0
2017-Dec-07 02:00N 47°59' W 122°13'2 4.0
2017-Dec-07 01:30N 47°58' W 122°16'4 7.3
2017-Dec-07 01:00N 47°56' W 122°20'3 6.8
2017-Dec-07 00:30N 47°54' W 122°24'4 9.0
2017-Dec-07 00:00N 47°55' W 122°31'5 9.6
2017-Dec-06 23:26N 47°58' W 122°38'  
2017-Dec-03 02:34N 47°59' W 122°13'0 0.1
2017-Dec-03 02:30N 47°59' W 122°13'2 3.8
2017-Dec-03 01:59N 47°59' W 122°16'4 8.4
2017-Dec-03 01:30N 47°56' W 122°20'3 7.0
2017-Dec-03 01:00N 47°54' W 122°24'4 7.6
2017-Dec-03 00:30N 47°55' W 122°30'7 1.3
2017-Dec-02 19:23N 48°00' W 122°36'2 6.0
2017-Dec-02 19:00N 47°58' W 122°34'3 5.9
2017-Dec-02 18:30N 47°57' W 122°31'3 6.9
2017-Dec-02 18:01N 47°54' W 122°27'3 6.4
2017-Dec-02 17:30N 47°54' W 122°22'4 7.6
2017-Dec-02 17:00N 47°57' W 122°20'4 7.0
2017-Dec-02 16:30N 47°59' W 122°15'1 2.9
2017-Dec-02 16:00N 47°59' W 122°13'0 0.0
2017-Dec-02 15:30N 47°59' W 122°13'0 0.0
2017-Dec-01 02:09N 47°59' W 122°13'0 0.8
2017-Dec-01 02:00N 47°59' W 122°13'2 3.4
2017-Dec-01 01:30N 47°59' W 122°16'4 8.4
2017-Dec-01 01:01N 47°56' W 122°20'4 7.5
2017-Dec-01 00:31N 47°54' W 122°25'4 7.9
2017-Dec-01 00:00N 47°55' W 122°30'4 7.1
2017-Nov-30 23:29N 47°57' W 122°35'5 1.2
2017-Nov-30 19:26N 48°02' W 122°38'3 6.7
2017-Nov-30 18:57N 47°59' W 122°35'3 6.7
2017-Nov-30 18:31N 47°57' W 122°32'4 7.5
2017-Nov-30 18:01N 47°55' W 122°28'4 7.1
2017-Nov-30 17:31N 47°54' W 122°22'4 7.6
2017-Nov-30 17:01N 47°57' W 122°20'4 7.4
2017-Nov-30 16:30N 47°58' W 122°14'1 2.0
2017-Nov-30 16:01N 47°59' W 122°13'0 0.0
2017-Nov-30 15:31N 47°59' W 122°13'0 0.0
2017-Nov-30 15:01N 47°59' W 122°13'0 0.0
2017-Nov-30 14:30N 47°59' W 122°13'0 0.0
2017-Nov-30 14:01N 47°59' W 122°13'0 0.0
2017-Nov-30 13:31N 47°59' W 122°13'0 0.0
2017-Nov-30 13:01N 47°59' W 122°13'0 0.0
2017-Nov-30 12:30N 47°59' W 122°13'0 0.0
2017-Nov-30 12:01N 47°59' W 122°13'0 0.0
2017-Nov-30 11:31N 47°59' W 122°13'0 0.0
2017-Nov-30 11:01N 47°59' W 122°13'0 0.0
2017-Nov-30 10:31N 47°59' W 122°13'0 0.0
2017-Nov-30 10:01N 47°59' W 122°13'0 0.0
2017-Nov-30 09:31N 47°59' W 122°13'0 0.0
2017-Nov-30 09:01N 47°59' W 122°13'0 0.0
2017-Nov-30 08:31N 47°59' W 122°13'0 0.0
2017-Nov-30 08:01N 47°59' W 122°13'0 0.0
2017-Nov-30 07:31N 47°59' W 122°13'0 0.0
2017-Nov-30 07:01N 47°59' W 122°13'0 0.0
2017-Nov-30 06:31N 47°59' W 122°13'0 0.0
2017-Nov-30 06:01N 47°59' W 122°13'0 0.0
2017-Nov-30 05:31N 47°59' W 122°13'0 0.0
2017-Nov-30 05:00N 47°59' W 122°13'0 0.0
2017-Nov-30 04:31N 47°59' W 122°13'0 0.0
2017-Nov-30 04:00N 47°59' W 122°13'0 0.0
2017-Nov-30 03:31N 47°59' W 122°13'0 0.0
2017-Nov-30 03:01N 47°59' W 122°13'1 2.1
2017-Nov-30 02:30N 47°59' W 122°15'3 5.7
2017-Nov-30 02:01N 47°58' W 122°18'4 8.8
2017-Nov-30 01:31N 47°54' W 122°22'4 7.3
2017-Nov-30 01:01N 47°54' W 122°27'4 7.4
2017-Nov-30 00:31N 47°56' W 122°32'4 7.3
2017-Nov-29 23:59N 47°58' W 122°37'4 1.1
2017-Nov-29 20:22N 48°02' W 122°37'3 6.7
2017-Nov-29 19:59N 47°59' W 122°36'3 6.8
2017-Nov-29 19:30N 47°57' W 122°32'4 7.5
2017-Nov-29 19:01N 47°55' W 122°28'4 7.4
2017-Nov-29 18:31N 47°54' W 122°23'4 8.4
2017-Nov-29 18:00N 47°57' W 122°19'4 7.8
2017-Nov-29 17:31N 47°59' W 122°14'1 1.0
2017-Nov-29 17:01N 47°59' W 122°13'0 0.0
2017-Nov-29 16:31N 47°59' W 122°13'0 0.0
2017-Nov-29 16:01N 47°59' W 122°13'0 0.0
2017-Nov-29 15:31N 47°59' W 122°13'0 0.0
2017-Nov-29 15:01N 47°59' W 122°13'0 0.0
2017-Nov-29 14:31N 47°59' W 122°13'0 0.0
2017-Nov-29 14:00N 47°59' W 122°13'0 0.0
2017-Nov-29 13:31N 47°59' W 122°13'0 0.0
2017-Nov-29 13:01N 47°59' W 122°13'0 0.0
2017-Nov-29 12:31N 47°59' W 122°13'0 0.0
2017-Nov-29 12:01N 47°59' W 122°13'0 0.0
2017-Nov-29 11:31N 47°59' W 122°13'0 0.0
2017-Nov-29 11:01N 47°59' W 122°13'0 0.0
2017-Nov-29 10:31N 47°59' W 122°13'0 0.0
2017-Nov-29 10:01N 47°59' W 122°13'0 0.0
2017-Nov-29 09:30N 47°59' W 122°13'0 0.0
2017-Nov-29 09:01N 47°59' W 122°13'0 0.0
2017-Nov-29 08:31N 47°59' W 122°13'0 0.0
2017-Nov-29 08:00N 47°59' W 122°13'0 0.0
2017-Nov-29 07:31N 47°59' W 122°13'0 0.0
2017-Nov-29 07:01N 47°59' W 122°13'0 0.0
2017-Nov-29 06:30N 47°59' W 122°13'0 0.0
2017-Nov-29 06:01N 47°59' W 122°13'0 0.0
2017-Nov-29 05:31N 47°59' W 122°13'0 0.0
2017-Nov-29 05:00N 47°59' W 122°13'0 0.0
2017-Nov-29 04:31N 47°59' W 122°13'0 0.0
2017-Nov-29 04:00N 47°59' W 122°13'0 0.0
2017-Nov-29 03:31N 47°59' W 122°13'0 0.0
2017-Nov-29 03:01N 47°59' W 122°13'0 0.0
2017-Nov-29 02:31N 47°59' W 122°13'0 0.0
2017-Nov-29 02:01N 47°59' W 122°13'0 0.0
2017-Nov-29 01:31N 47°59' W 122°13'0 0.0
2017-Nov-29 01:01N 47°59' W 122°13'0 0.0
2017-Nov-29 00:31N 47°59' W 122°13'0 0.0
2017-Nov-29 00:01N 47°59' W 122°13'0 0.0
2017-Nov-28 23:31N 47°59' W 122°13'0 0.0
2017-Nov-28 23:00N 47°59' W 122°13'0 0.0
2017-Nov-28 22:31N 47°59' W 122°13'0 0.0
2017-Nov-28 22:01N 47°59' W 122°13'0 0.0
2017-Nov-28 21:30N 47°59' W 122°13'0 0.0
2017-Nov-28 21:01N 47°59' W 122°13'0 0.0
2017-Nov-28 20:30N 47°59' W 122°13'0 0.0
2017-Nov-28 20:01N 47°59' W 122°13'0 0.0
2017-Nov-28 19:30N 47°59' W 122°13'0 0.0
2017-Nov-28 19:01N 47°59' W 122°13'0 0.0
2017-Nov-28 18:30N 47°59' W 122°13'0 0.0
2017-Nov-28 18:01N 47°59' W 122°13'0 0.0
2017-Nov-28 17:31N 47°59' W 122°13'0 0.0
2017-Nov-28 17:00N 47°59' W 122°13'0 0.0
2017-Nov-28 16:31N 47°59' W 122°13'0 0.0
2017-Nov-28 16:00N 47°59' W 122°13'0 0.0
2017-Nov-28 15:01N 47°59' W 122°13'0 0.0
2017-Nov-28 14:31N 47°59' W 122°13'0 0.0
2017-Nov-28 14:00N 47°59' W 122°13'0 0.0
2017-Nov-28 13:30N 47°59' W 122°13'0 0.0
2017-Nov-28 13:01N 47°59' W 122°13'0 0.0
2017-Nov-28 12:31N 47°59' W 122°13'0 0.0
2017-Nov-28 12:00N 47°59' W 122°13'0 0.0
2017-Nov-28 11:30N 47°59' W 122°13'0 0.0
2017-Nov-28 11:00N 47°59' W 122°13'0 0.0
2017-Nov-28 10:31N 47°59' W 122°13'0 0.0
2017-Nov-28 10:01N 47°59' W 122°13'  

Dump ship's entire track history